Time;durP1;ratioP1;P1;durP2;ratioP2;P2;SDS_P1;SDS_P2;PMS_P1;PMS_P2;Temp;Humidity;BMP_temperature;BMP_pressure;BME280_temperature;BME280_humidity;BME280_pressure;Samples;Min_cycle;Max_cycle;Signal;HPM_P1;HPM_P2
2023/04/10 00:21:03;;;;;;;31.53;22.17;;;7.00;99.90;;;;;;5784146;24;20217;-84
2023/04/10 01:21:50;;;;;;;47.67;30.83;;;7.10;99.90;;;;;;5967799;23;20188;-88
2023/04/10 02:37:54;;;;;;;45.60;28.00;;;5.70;99.90;;;;;;5700201;24;20204;-85
2023/04/10 02:58:13;;;;;;;42.03;27.17;;;5.40;99.90;;;;;;5755230;24;20268;-83
2023/04/10 03:43:40;;;;;;;51.80;29.97;;;6.00;99.90;;;;;;5740375;24;20180;-83
2023/04/10 04:59:40;;;;;;;44.67;28.47;;;7.80;99.90;;;;;;5768320;24;20303;-87
2023/04/10 05:34:54;;;;;;;41.43;28.27;;;8.50;99.90;;;;;;5827541;24;20524;-84
2023/04/10 06:00:42;;;;;;;35.97;25.17;;;8.90;99.90;;;;;;5991923;23;20385;-84
2023/04/10 06:30:56;;;;;;;19.93;16.77;;;9.90;99.90;;;;;;5766527;24;20657;-88
2023/04/10 07:16:11;;;;;;;15.80;12.93;;;11.30;99.90;;;;;;5699121;24;21072;-87
2023/04/10 08:37:14;;;;;;;12.10;10.67;;;13.30;99.90;;;;;;5012821;28;20192;-84
2023/04/10 09:18:02;;;;;;;7.77;6.50;;;14.10;94.20;;;;;;4729093;29;20404;-85
2023/04/10 09:43:32;;;;;;;7.97;6.43;;;14.50;91.20;;;;;;4703946;30;20228;-86
2023/04/10 10:13:38;;;;;;;7.77;6.50;;;14.60;86.70;;;;;;4635197;30;20448;-85
2023/04/10 10:44:30;;;;;;;5.47;4.57;;;15.30;84.30;;;;;;4520632;30;20600;-85
2023/04/10 11:14:22;;;;;;;4.97;4.40;;;16.00;79.50;;;;;;4636546;30;20512;-86
2023/04/10 11:35:21;;;;;;;4.33;3.90;;;16.40;75.10;;;;;;4610223;30;20388;-82
2023/04/10 11:50:34;;;;;;;4.77;4.27;;;17.20;71.10;;;;;;4665954;30;20238;-86
2023/04/10 11:54:53;;;;;;;4.90;4.40;;;17.20;74.90;;;;;;4655036;30;20458;-85
2023/04/10 12:15:29;;;;;;;3.90;3.50;;;17.50;62.60;;;;;;4620550;30;20710;-85
2023/04/10 12:41:01;;;;;;;4.53;3.57;;;17.30;62.50;;;;;;4574170;30;20356;-86
2023/04/10 13:11:35;;;;;;;3.60;3.30;;;18.30;60.50;;;;;;4588842;30;20622;-84
2023/04/10 13:41:49;;;;;;;8.23;4.60;;;13.90;95.50;;;;;;4663192;30;20714;-84
2023/04/10 14:12:24;;;;;;;6.33;5.57;;;13.20;99.90;;;;;;4663192;30;20223;-87
2023/04/10 14:37:49;;;;;;;7.60;5.90;;;13.80;99.90;;;;;;4540704;30;20801;-86
2023/04/10 15:18:19;;;;;;;5.63;5.13;;;15.90;86.90;;;;;;4776898;29;20211;-87
2023/04/10 15:43:36;;;;;;;6.40;5.13;;;14.80;90.00;;;;;;4665529;30;20221;-87
2023/04/10 16:04:03;;;;;;;5.67;4.60;;;15.40;88.90;;;;;;4646567;30;20323;-86
2023/04/10 17:03:30;;;;;;;7.20;6.37;;;13.10;91.50;;;;;;4766127;29;20558;-88
2023/04/10 17:24:16;;;;;;;7.60;6.90;;;11.70;99.90;;;;;;4751678;30;20212;-88
2023/04/10 17:49:27;;;;;;;18.63;15.40;;;10.30;99.90;;;;;;4609983;30;20371;-88
2023/04/10 18:24:22;;;;;;;10.77;8.97;;;10.10;99.90;;;;;;4682628;30;20232;-88
2023/04/10 18:40:09;;;;;;;12.10;9.33;;;9.80;99.90;;;;;;4739943;29;20252;-86
2023/04/10 19:05:15;;;;;;;13.57;11.23;;;9.10;99.90;;;;;;4727854;30;20818;-89
2023/04/10 19:20:51;;;;;;;13.87;11.17;;;9.30;99.90;;;;;;4722777;30;20282;-88
2023/04/10 19:51:05;;;;;;;17.13;12.27;;;8.50;99.90;;;;;;4718629;30;20235;-87
2023/04/10 20:21:41;;;;;;;24.30;16.23;;;7.90;99.90;;;;;;4660731;30;20230;-88
2023/04/10 20:46:59;;;;;;;23.27;18.00;;;7.40;99.90;;;;;;4578078;31;20688;-86
2023/04/10 21:12:15;;;;;;;26.23;18.27;;;7.20;99.90;;;;;;4683172;30;20244;-86
2023/04/10 21:32:37;;;;;;;29.30;19.57;;;6.80;99.90;;;;;;4786746;29;20217;-88
2023/04/10 22:02:57;;;;;;;28.97;20.23;;;6.50;99.90;;;;;;4762838;29;20742;-88
2023/04/10 22:33:11;;;;;;;34.53;22.20;;;5.90;99.90;;;;;;4710282;30;20249;-87
2023/04/10 22:53:38;;;;;;;34.53;24.60;;;6.30;99.90;;;;;;4846743;29;20259;-88
2023/04/10 23:23:58;;;;;;;40.83;29.07;;;5.80;99.90;;;;;;4577787;31;20237;-88
